sensor_id;sensor_type;location;lat;lon;timestamp;P1;durP1;ratioP1;P2;durP2;ratioP2
69621;SDS011;56841;55.964;37.674;2022-08-01T00:01:05;8.07;;;3.65;;
69621;SDS011;56841;55.964;37.674;2022-08-01T00:03:31;8.93;;;4.10;;
69621;SDS011;56841;55.964;37.674;2022-08-01T00:05:57;8.25;;;3.88;;
69621;SDS011;56841;55.964;37.674;2022-08-01T00:08:22;6.53;;;3.70;;
69621;SDS011;56841;55.964;37.674;2022-08-01T00:10:48;8.63;;;3.80;;
69621;SDS011;56841;55.964;37.674;2022-08-01T00:13:14;8.70;;;4.00;;
69621;SDS011;56841;55.964;37.674;2022-08-01T00:15:40;9.85;;;4.22;;
69621;SDS011;56841;55.964;37.674;2022-08-01T00:18:05;8.45;;;4.28;;
69621;SDS011;56841;55.964;37.674;2022-08-01T00:20:31;13.57;;;5.00;;
69621;SDS011;56841;55.964;37.674;2022-08-01T00:22:57;11.27;;;5.03;;
69621;SDS011;56841;55.964;37.674;2022-08-01T00:25:23;12.68;;;4.68;;
69621;SDS011;56841;55.964;37.674;2022-08-01T00:27:49;12.73;;;4.68;;
69621;SDS011;56841;55.964;37.674;2022-08-01T00:30:14;14.35;;;4.93;;
69621;SDS011;56841;55.964;37.674;2022-08-01T00:32:41;11.65;;;5.10;;
69621;SDS011;56841;55.964;37.674;2022-08-01T00:35:07;9.43;;;4.38;;
69621;SDS011;56841;55.964;37.674;2022-08-01T00:37:33;10.90;;;4.35;;
69621;SDS011;56841;55.964;37.674;2022-08-01T00:39:59;6.63;;;3.70;;
69621;SDS011;56841;55.964;37.674;2022-08-01T00:42:25;8.50;;;4.00;;
69621;SDS011;56841;55.964;37.674;2022-08-01T00:44:50;9.18;;;4.20;;
69621;SDS011;56841;55.964;37.674;2022-08-01T00:47:16;9.02;;;4.22;;
69621;SDS011;56841;55.964;37.674;2022-08-01T00:49:42;11.52;;;4.05;;
69621;SDS011;56841;55.964;37.674;2022-08-01T00:52:08;7.53;;;3.97;;
69621;SDS011;56841;55.964;37.674;2022-08-01T00:54:34;8.43;;;4.00;;
69621;SDS011;56841;55.964;37.674;2022-08-01T00:57:01;10.63;;;4.00;;
69621;SDS011;56841;55.964;37.674;2022-08-01T00:59:28;7.03;;;3.60;;
69621;SDS011;56841;55.964;37.674;2022-08-01T01:01:54;8.07;;;3.53;;
69621;SDS011;56841;55.964;37.674;2022-08-01T01:04:21;6.63;;;3.30;;
69621;SDS011;56841;55.964;37.674;2022-08-01T01:09:44;7.38;;;3.08;;
69621;SDS011;56841;55.964;37.674;2022-08-01T01:17:35;5.95;;;3.03;;
69621;SDS011;56841;55.964;37.674;2022-08-01T01:20:04;9.60;;;3.30;;
69621;SDS011;56841;55.964;37.674;2022-08-01T01:22:41;9.77;;;3.03;;
69621;SDS011;56841;55.964;37.674;2022-08-01T01:25:19;7.47;;;2.80;;
69621;SDS011;56841;55.964;37.674;2022-08-01T01:28:05;5.90;;;2.67;;
69621;SDS011;56841;55.964;37.674;2022-08-01T01:30:33;6.53;;;2.70;;
69621;SDS011;56841;55.964;37.674;2022-08-01T01:33:02;5.70;;;2.80;;
69621;SDS011;56841;55.964;37.674;2022-08-01T01:35:31;7.88;;;3.28;;
69621;SDS011;56841;55.964;37.674;2022-08-01T01:38:05;5.65;;;2.83;;
69621;SDS011;56841;55.964;37.674;2022-08-01T01:40:34;6.65;;;3.00;;
69621;SDS011;56841;55.964;37.674;2022-08-01T01:43:02;6.10;;;3.15;;
69621;SDS011;56841;55.964;37.674;2022-08-01T01:45:28;10.80;;;3.58;;
69621;SDS011;56841;55.964;37.674;2022-08-01T01:47:55;10.00;;;3.58;;
69621;SDS011;56841;55.964;37.674;2022-08-01T01:50:23;11.43;;;4.00;;
69621;SDS011;56841;55.964;37.674;2022-08-01T01:52:50;11.38;;;3.80;;
69621;SDS011;56841;55.964;37.674;2022-08-01T01:55:18;11.45;;;3.75;;
69621;SDS011;56841;55.964;37.674;2022-08-01T01:57:47;9.65;;;3.65;;
69621;SDS011;56841;55.964;37.674;2022-08-01T02:00:15;9.40;;;3.80;;
69621;SDS011;56841;55.964;37.674;2022-08-01T02:02:41;9.30;;;3.70;;
69621;SDS011;56841;55.964;37.674;2022-08-01T02:05:10;7.95;;;3.53;;
69621;SDS011;56841;55.964;37.674;2022-08-01T02:07:37;7.97;;;3.55;;
69621;SDS011;56841;55.964;37.674;2022-08-01T02:10:04;7.32;;;3.42;;
69621;SDS011;56841;55.964;37.674;2022-08-01T02:12:32;7.55;;;3.60;;
69621;SDS011;56841;55.964;37.674;2022-08-01T02:17:29;7.18;;;3.10;;
69621;SDS011;56841;55.964;37.674;2022-08-01T02:19:56;5.90;;;3.00;;
69621;SDS011;56841;55.964;37.674;2022-08-01T02:22:29;7.18;;;3.15;;
69621;SDS011;56841;55.964;37.674;2022-08-01T02:25:22;8.98;;;3.40;;
69621;SDS011;56841;55.964;37.674;2022-08-01T02:30:36;6.97;;;3.22;;
69621;SDS011;56841;55.964;37.674;2022-08-01T02:33:08;5.93;;;3.50;;
69621;SDS011;56841;55.964;37.674;2022-08-01T02:35:41;5.78;;;3.40;;
69621;SDS011;56841;55.964;37.674;2022-08-01T02:38:09;6.68;;;3.60;;
69621;SDS011;56841;55.964;37.674;2022-08-01T02:40:37;6.95;;;3.78;;
69621;SDS011;56841;55.964;37.674;2022-08-01T02:43:07;6.82;;;3.40;;
69621;SDS011;56841;55.964;37.674;2022-08-01T02:45:35;8.38;;;3.35;;
69621;SDS011;56841;55.964;37.674;2022-08-01T02:48:11;6.22;;;3.50;;
69621;SDS011;56841;55.964;37.674;2022-08-01T02:50:39;6.90;;;3.47;;
69621;SDS011;56841;55.964;37.674;2022-08-01T02:53:07;4.93;;;3.10;;
69621;SDS011;56841;55.964;37.674;2022-08-01T02:55:36;6.28;;;3.08;;
69621;SDS011;56841;55.964;37.674;2022-08-01T02:58:04;6.35;;;3.45;;
69621;SDS011;56841;55.964;37.674;2022-08-01T03:00:32;5.68;;;3.35;;
69621;SDS011;56841;55.964;37.674;2022-08-01T03:02:59;5.68;;;3.42;;
69621;SDS011;56841;55.964;37.674;2022-08-01T03:05:27;6.75;;;3.63;;
69621;SDS011;56841;55.964;37.674;2022-08-01T03:07:55;6.15;;;3.40;;
69621;SDS011;56841;55.964;37.674;2022-08-01T03:10:21;4.97;;;3.30;;
69621;SDS011;56841;55.964;37.674;2022-08-01T03:12:49;7.15;;;3.85;;
69621;SDS011;56841;55.964;37.674;2022-08-01T03:15:17;6.93;;;3.92;;
69621;SDS011;56841;55.964;37.674;2022-08-01T03:17:45;9.18;;;3.50;;
69621;SDS011;56841;55.964;37.674;2022-08-01T03:20:15;7.78;;;3.42;;
69621;SDS011;56841;55.964;37.674;2022-08-01T03:22:43;6.47;;;3.55;;
69621;SDS011;56841;55.964;37.674;2022-08-01T03:25:11;7.25;;;3.40;;
69621;SDS011;56841;55.964;37.674;2022-08-01T03:27:41;9.27;;;3.30;;
69621;SDS011;56841;55.964;37.674;2022-08-01T03:30:08;6.40;;;3.30;;
69621;SDS011;56841;55.964;37.674;2022-08-01T03:32:35;10.05;;;3.20;;
69621;SDS011;56841;55.964;37.674;2022-08-01T03:35:01;6.93;;;2.85;;
69621;SDS011;56841;55.964;37.674;2022-08-01T03:37:38;5.18;;;2.80;;
69621;SDS011;56841;55.964;37.674;2022-08-01T03:40:13;10.55;;;3.00;;
69621;SDS011;56841;55.964;37.674;2022-08-01T03:42:46;5.88;;;2.83;;
69621;SDS011;56841;55.964;37.674;2022-08-01T03:45:22;10.43;;;2.90;;
69621;SDS011;56841;55.964;37.674;2022-08-01T03:47:55;7.25;;;2.80;;
69621;SDS011;56841;55.964;37.674;2022-08-01T03:50:26;7.47;;;2.88;;
69621;SDS011;56841;55.964;37.674;2022-08-01T03:52:53;9.23;;;2.85;;
69621;SDS011;56841;55.964;37.674;2022-08-01T03:55:21;6.25;;;2.60;;
69621;SDS011;56841;55.964;37.674;2022-08-01T03:57:48;6.97;;;2.70;;
69621;SDS011;56841;55.964;37.674;2022-08-01T04:00:16;7.47;;;3.10;;
69621;SDS011;56841;55.964;37.674;2022-08-01T04:02:45;8.85;;;2.58;;
69621;SDS011;56841;55.964;37.674;2022-08-01T04:05:12;6.07;;;2.90;;
69621;SDS011;56841;55.964;37.674;2022-08-01T04:07:37;10.63;;;2.75;;
69621;SDS011;56841;55.964;37.674;2022-08-01T04:10:09;12.32;;;2.80;;
69621;SDS011;56841;55.964;37.674;2022-08-01T04:12:34;7.82;;;2.65;;
69621;SDS011;56841;55.964;37.674;2022-08-01T04:15:01;8.30;;;2.80;;
69621;SDS011;56841;55.964;37.674;2022-08-01T04:17:29;7.90;;;2.78;;
69621;SDS011;56841;55.964;37.674;2022-08-01T04:19:55;7.03;;;2.67;;
69621;SDS011;56841;55.964;37.674;2022-08-01T04:22:21;8.23;;;2.78;;
69621;SDS011;56841;55.964;37.674;2022-08-01T04:24:47;3.78;;;2.20;;
69621;SDS011;56841;55.964;37.674;2022-08-01T04:27:32;6.55;;;2.40;;
69621;SDS011;56841;55.964;37.674;2022-08-01T04:30:01;6.30;;;2.50;;
69621;SDS011;56841;55.964;37.674;2022-08-01T04:32:29;7.70;;;2.70;;
69621;SDS011;56841;55.964;37.674;2022-08-01T04:34:59;5.72;;;2.53;;
69621;SDS011;56841;55.964;37.674;2022-08-01T04:37:28;8.75;;;2.63;;
69621;SDS011;56841;55.964;37.674;2022-08-01T04:39:55;6.40;;;2.38;;
69621;SDS011;56841;55.964;37.674;2022-08-01T04:42:22;8.20;;;2.45;;
69621;SDS011;56841;55.964;37.674;2022-08-01T04:44:48;7.38;;;2.35;;
69621;SDS011;56841;55.964;37.674;2022-08-01T04:47:14;5.65;;;2.20;;
69621;SDS011;56841;55.964;37.674;2022-08-01T04:49:40;10.27;;;2.30;;
69621;SDS011;56841;55.964;37.674;2022-08-01T04:52:07;9.20;;;2.13;;
69621;SDS011;56841;55.964;37.674;2022-08-01T04:54:33;9.70;;;2.28;;
69621;SDS011;56841;55.964;37.674;2022-08-01T04:57:06;5.30;;;1.98;;
69621;SDS011;56841;55.964;37.674;2022-08-01T04:59:33;10.73;;;2.47;;
69621;SDS011;56841;55.964;37.674;2022-08-01T05:02:07;6.07;;;2.15;;
69621;SDS011;56841;55.964;37.674;2022-08-01T05:04:37;6.57;;;2.28;;
69621;SDS011;56841;55.964;37.674;2022-08-01T05:07:05;5.03;;;2.08;;
69621;SDS011;56841;55.964;37.674;2022-08-01T05:09:31;8.95;;;2.00;;
69621;SDS011;56841;55.964;37.674;2022-08-01T05:11:59;5.55;;;2.00;;
69621;SDS011;56841;55.964;37.674;2022-08-01T05:14:27;4.90;;;1.70;;
69621;SDS011;56841;55.964;37.674;2022-08-01T05:16:54;8.50;;;2.00;;
69621;SDS011;56841;55.964;37.674;2022-08-01T05:19:20;6.63;;;1.77;;
69621;SDS011;56841;55.964;37.674;2022-08-01T05:21:46;4.80;;;1.50;;
69621;SDS011;56841;55.964;37.674;2022-08-01T05:24:13;3.80;;;1.50;;
69621;SDS011;56841;55.964;37.674;2022-08-01T05:26:39;3.28;;;1.63;;
69621;SDS011;56841;55.964;37.674;2022-08-01T05:29:05;3.38;;;1.50;;
69621;SDS011;56841;55.964;37.674;2022-08-01T05:31:31;4.10;;;1.50;;
69621;SDS011;56841;55.964;37.674;2022-08-01T05:34:00;3.53;;;1.33;;
69621;SDS011;56841;55.964;37.674;2022-08-01T05:36:27;5.95;;;1.75;;
69621;SDS011;56841;55.964;37.674;2022-08-01T05:38:53;2.63;;;1.17;;
69621;SDS011;56841;55.964;37.674;2022-08-01T05:41:19;3.58;;;1.50;;
69621;SDS011;56841;55.964;37.674;2022-08-01T05:43:45;3.13;;;1.50;;
69621;SDS011;56841;55.964;37.674;2022-08-01T05:46:10;6.32;;;1.60;;
69621;SDS011;56841;55.964;37.674;2022-08-01T05:48:36;5.90;;;1.33;;
69621;SDS011;56841;55.964;37.674;2022-08-01T05:51:02;2.67;;;1.33;;
69621;SDS011;56841;55.964;37.674;2022-08-01T05:53:28;3.35;;;1.30;;
69621;SDS011;56841;55.964;37.674;2022-08-01T05:55:54;3.00;;;1.15;;
69621;SDS011;56841;55.964;37.674;2022-08-01T05:58:20;4.60;;;1.50;;
69621;SDS011;56841;55.964;37.674;2022-08-01T06:00:46;3.97;;;1.65;;
69621;SDS011;56841;55.964;37.674;2022-08-01T06:03:12;3.33;;;1.55;;
69621;SDS011;56841;55.964;37.674;2022-08-01T06:05:39;5.57;;;1.38;;
69621;SDS011;56841;55.964;37.674;2022-08-01T06:08:05;6.40;;;1.40;;
69621;SDS011;56841;55.964;37.674;2022-08-01T06:10:31;5.03;;;1.77;;
69621;SDS011;56841;55.964;37.674;2022-08-01T06:12:57;3.45;;;1.60;;
69621;SDS011;56841;55.964;37.674;2022-08-01T06:15:24;6.43;;;1.80;;
69621;SDS011;56841;55.964;37.674;2022-08-01T06:17:50;3.65;;;1.80;;
69621;SDS011;56841;55.964;37.674;2022-08-01T06:20:16;5.50;;;1.75;;
69621;SDS011;56841;55.964;37.674;2022-08-01T06:22:42;5.53;;;2.17;;
69621;SDS011;56841;55.964;37.674;2022-08-01T06:25:08;5.57;;;1.90;;
69621;SDS011;56841;55.964;37.674;2022-08-01T06:27:34;3.88;;;1.70;;
69621;SDS011;56841;55.964;37.674;2022-08-01T06:30:00;4.22;;;1.83;;
69621;SDS011;56841;55.964;37.674;2022-08-01T06:32:26;3.25;;;1.75;;
69621;SDS011;56841;55.964;37.674;2022-08-01T06:34:52;3.58;;;1.63;;
69621;SDS011;56841;55.964;37.674;2022-08-01T06:37:18;5.05;;;1.80;;
69621;SDS011;56841;55.964;37.674;2022-08-01T06:39:44;4.78;;;2.03;;
69621;SDS011;56841;55.964;37.674;2022-08-01T06:42:10;3.30;;;1.73;;
69621;SDS011;56841;55.964;37.674;2022-08-01T06:44:36;3.83;;;1.80;;
69621;SDS011;56841;55.964;37.674;2022-08-01T06:47:01;4.93;;;1.95;;
69621;SDS011;56841;55.964;37.674;2022-08-01T06:49:27;7.45;;;2.05;;
69621;SDS011;56841;55.964;37.674;2022-08-01T06:51:53;4.80;;;1.58;;
69621;SDS011;56841;55.964;37.674;2022-08-01T06:54:19;4.13;;;1.50;;
69621;SDS011;56841;55.964;37.674;2022-08-01T06:56:44;4.53;;;1.77;;
69621;SDS011;56841;55.964;37.674;2022-08-01T06:59:10;4.82;;;1.52;;
69621;SDS011;56841;55.964;37.674;2022-08-01T07:01:36;3.50;;;1.70;;
69621;SDS011;56841;55.964;37.674;2022-08-01T07:04:02;4.63;;;1.50;;
69621;SDS011;56841;55.964;37.674;2022-08-01T07:06:28;3.45;;;1.48;;
69621;SDS011;56841;55.964;37.674;2022-08-01T07:08:54;2.85;;;1.08;;
69621;SDS011;56841;55.964;37.674;2022-08-01T07:11:21;2.55;;;1.20;;
69621;SDS011;56841;55.964;37.674;2022-08-01T07:13:48;5.28;;;1.70;;
69621;SDS011;56841;55.964;37.674;2022-08-01T07:16:15;2.78;;;1.42;;
69621;SDS011;56841;55.964;37.674;2022-08-01T07:18:41;2.42;;;1.20;;
69621;SDS011;56841;55.964;37.674;2022-08-01T07:21:08;3.25;;;1.40;;
69621;SDS011;56841;55.964;37.674;2022-08-01T07:23:34;3.22;;;1.40;;
69621;SDS011;56841;55.964;37.674;2022-08-01T07:26:00;3.97;;;1.70;;
69621;SDS011;56841;55.964;37.674;2022-08-01T07:28:29;3.30;;;1.50;;
69621;SDS011;56841;55.964;37.674;2022-08-01T07:30:55;4.03;;;1.50;;
69621;SDS011;56841;55.964;37.674;2022-08-01T07:33:21;4.10;;;1.48;;
69621;SDS011;56841;55.964;37.674;2022-08-01T07:35:47;3.35;;;1.65;;
69621;SDS011;56841;55.964;37.674;2022-08-01T07:38:14;4.03;;;1.48;;
69621;SDS011;56841;55.964;37.674;2022-08-01T07:40:45;2.80;;;1.40;;
69621;SDS011;56841;55.964;37.674;2022-08-01T07:43:10;4.32;;;1.60;;
69621;SDS011;56841;55.964;37.674;2022-08-01T07:45:36;3.55;;;1.60;;
69621;SDS011;56841;55.964;37.674;2022-08-01T07:48:05;2.75;;;1.45;;
69621;SDS011;56841;55.964;37.674;2022-08-01T07:50:32;3.28;;;1.60;;
69621;SDS011;56841;55.964;37.674;2022-08-01T07:52:58;2.20;;;1.40;;
69621;SDS011;56841;55.964;37.674;2022-08-01T07:55:25;3.80;;;1.63;;
69621;SDS011;56841;55.964;37.674;2022-08-01T07:57:51;4.22;;;1.65;;
69621;SDS011;56841;55.964;37.674;2022-08-01T08:00:17;5.13;;;1.80;;
69621;SDS011;56841;55.964;37.674;2022-08-01T08:02:43;3.88;;;1.63;;
69621;SDS011;56841;55.964;37.674;2022-08-01T08:05:10;5.25;;;1.70;;
69621;SDS011;56841;55.964;37.674;2022-08-01T08:07:37;5.65;;;1.60;;
69621;SDS011;56841;55.964;37.674;2022-08-01T08:10:03;4.07;;;1.80;;
69621;SDS011;56841;55.964;37.674;2022-08-01T08:12:31;4.28;;;1.90;;
69621;SDS011;56841;55.964;37.674;2022-08-01T08:14:57;3.65;;;1.65;;
69621;SDS011;56841;55.964;37.674;2022-08-01T08:17:27;6.72;;;1.85;;
69621;SDS011;56841;55.964;37.674;2022-08-01T08:19:53;5.07;;;1.67;;
69621;SDS011;56841;55.964;37.674;2022-08-01T08:22:19;5.35;;;1.95;;
69621;SDS011;56841;55.964;37.674;2022-08-01T08:24:44;5.40;;;1.88;;
69621;SDS011;56841;55.964;37.674;2022-08-01T08:27:10;4.00;;;1.92;;
69621;SDS011;56841;55.964;37.674;2022-08-01T08:29:36;2.97;;;1.80;;
69621;SDS011;56841;55.964;37.674;2022-08-01T08:32:02;4.07;;;1.70;;
69621;SDS011;56841;55.964;37.674;2022-08-01T08:34:28;4.40;;;1.70;;
69621;SDS011;56841;55.964;37.674;2022-08-01T08:36:55;2.88;;;1.77;;
69621;SDS011;56841;55.964;37.674;2022-08-01T08:39:22;4.22;;;1.55;;
69621;SDS011;56841;55.964;37.674;2022-08-01T08:41:49;4.97;;;1.90;;
69621;SDS011;56841;55.964;37.674;2022-08-01T08:44:16;5.68;;;1.83;;
69621;SDS011;56841;55.964;37.674;2022-08-01T08:46:44;2.45;;;1.50;;
69621;SDS011;56841;55.964;37.674;2022-08-01T08:49:13;3.15;;;1.60;;
69621;SDS011;56841;55.964;37.674;2022-08-01T08:51:43;4.65;;;1.73;;
69621;SDS011;56841;55.964;37.674;2022-08-01T08:54:12;4.00;;;1.70;;
69621;SDS011;56841;55.964;37.674;2022-08-01T08:56:39;4.13;;;1.70;;
69621;SDS011;56841;55.964;37.674;2022-08-01T08:59:06;3.95;;;1.80;;
69621;SDS011;56841;55.964;37.674;2022-08-01T09:01:32;3.85;;;1.67;;
69621;SDS011;56841;55.964;37.674;2022-08-01T09:04:00;4.07;;;1.83;;
69621;SDS011;56841;55.964;37.674;2022-08-01T09:06:28;3.58;;;1.73;;
69621;SDS011;56841;55.964;37.674;2022-08-01T09:08:55;3.67;;;1.90;;
69621;SDS011;56841;55.964;37.674;2022-08-01T09:11:22;6.18;;;1.95;;
69621;SDS011;56841;55.964;37.674;2022-08-01T09:17:02;3.83;;;2.00;;
69621;SDS011;56841;55.964;37.674;2022-08-01T09:19:36;5.40;;;1.70;;
69621;SDS011;56841;55.964;37.674;2022-08-01T09:22:05;4.70;;;1.85;;
69621;SDS011;56841;55.964;37.674;2022-08-01T09:24:33;4.88;;;2.00;;
69621;SDS011;56841;55.964;37.674;2022-08-01T09:27:00;5.70;;;2.47;;
69621;SDS011;56841;55.964;37.674;2022-08-01T09:29:27;5.10;;;2.10;;
69621;SDS011;56841;55.964;37.674;2022-08-01T09:31:55;6.07;;;2.20;;
69621;SDS011;56841;55.964;37.674;2022-08-01T09:34:28;4.13;;;2.03;;
69621;SDS011;56841;55.964;37.674;2022-08-01T09:36:59;5.25;;;2.03;;
69621;SDS011;56841;55.964;37.674;2022-08-01T09:39:31;4.15;;;1.70;;
69621;SDS011;56841;55.964;37.674;2022-08-01T09:42:00;3.40;;;1.92;;
69621;SDS011;56841;55.964;37.674;2022-08-01T09:44:37;6.15;;;2.35;;
69621;SDS011;56841;55.964;37.674;2022-08-01T09:47:03;6.80;;;2.10;;
69621;SDS011;56841;55.964;37.674;2022-08-01T09:49:33;5.18;;;2.10;;
69621;SDS011;56841;55.964;37.674;2022-08-01T09:52:11;3.45;;;1.90;;
69621;SDS011;56841;55.964;37.674;2022-08-01T09:54:51;2.83;;;1.92;;
69621;SDS011;56841;55.964;37.674;2022-08-01T09:57:20;3.30;;;1.85;;
69621;SDS011;56841;55.964;37.674;2022-08-01T09:59:47;3.17;;;1.83;;
69621;SDS011;56841;55.964;37.674;2022-08-01T10:02:34;2.95;;;1.73;;
69621;SDS011;56841;55.964;37.674;2022-08-01T10:05:03;4.45;;;1.90;;
69621;SDS011;56841;55.964;37.674;2022-08-01T10:07:30;6.50;;;2.25;;
69621;SDS011;56841;55.964;37.674;2022-08-01T10:10:14;4.95;;;1.90;;
69621;SDS011;56841;55.964;37.674;2022-08-01T10:12:43;3.45;;;1.90;;
69621;SDS011;56841;55.964;37.674;2022-08-01T10:15:10;4.95;;;2.00;;
69621;SDS011;56841;55.964;37.674;2022-08-01T10:17:37;4.55;;;2.03;;
69621;SDS011;56841;55.964;37.674;2022-08-01T10:20:04;3.42;;;1.80;;
69621;SDS011;56841;55.964;37.674;2022-08-01T10:22:31;4.45;;;1.95;;
69621;SDS011;56841;55.964;37.674;2022-08-01T10:25:01;5.25;;;1.80;;
69621;SDS011;56841;55.964;37.674;2022-08-01T10:27:29;5.13;;;1.73;;
69621;SDS011;56841;55.964;37.674;2022-08-01T10:30:01;3.03;;;1.90;;
69621;SDS011;56841;55.964;37.674;2022-08-01T10:32:31;4.47;;;2.00;;
69621;SDS011;56841;55.964;37.674;2022-08-01T10:34:58;4.55;;;1.80;;
69621;SDS011;56841;55.964;37.674;2022-08-01T10:37:25;5.78;;;2.70;;
69621;SDS011;56841;55.964;37.674;2022-08-01T10:39:51;5.15;;;2.50;;
69621;SDS011;56841;55.964;37.674;2022-08-01T10:42:18;3.80;;;2.10;;
69621;SDS011;56841;55.964;37.674;2022-08-01T10:44:44;4.07;;;2.30;;
69621;SDS011;56841;55.964;37.674;2022-08-01T10:47:13;4.15;;;2.03;;
69621;SDS011;56841;55.964;37.674;2022-08-01T10:49:49;5.22;;;2.65;;
69621;SDS011;56841;55.964;37.674;2022-08-01T10:52:19;4.10;;;2.10;;
69621;SDS011;56841;55.964;37.674;2022-08-01T10:54:45;3.80;;;2.00;;
69621;SDS011;56841;55.964;37.674;2022-08-01T10:57:12;3.75;;;2.00;;
69621;SDS011;56841;55.964;37.674;2022-08-01T10:59:49;4.95;;;2.05;;
69621;SDS011;56841;55.964;37.674;2022-08-01T11:02:33;4.80;;;2.17;;
69621;SDS011;56841;55.964;37.674;2022-08-01T11:11:00;4.95;;;2.10;;
69621;SDS011;56841;55.964;37.674;2022-08-01T11:13:10;3.72;;;2.22;;
69621;SDS011;56841;55.964;37.674;2022-08-01T11:15:37;2.85;;;2.00;;
69621;SDS011;56841;55.964;37.674;2022-08-01T11:18:28;4.45;;;1.98;;
69621;SDS011;56841;55.964;37.674;2022-08-01T11:20:55;3.78;;;2.30;;
69621;SDS011;56841;55.964;37.674;2022-08-01T11:23:23;4.15;;;2.22;;
69621;SDS011;56841;55.964;37.674;2022-08-01T11:28:19;5.15;;;2.08;;
69621;SDS011;56841;55.964;37.674;2022-08-01T11:36:16;6.13;;;2.40;;
69621;SDS011;56841;55.964;37.674;2022-08-01T11:38:43;3.53;;;2.00;;
69621;SDS011;56841;55.964;37.674;2022-08-01T11:41:24;6.05;;;2.20;;
69621;SDS011;56841;55.964;37.674;2022-08-01T11:57:29;7.00;;;2.75;;
69621;SDS011;56841;55.964;37.674;2022-08-01T11:59:58;5.47;;;2.40;;
69621;SDS011;56841;55.964;37.674;2022-08-01T12:02:25;5.13;;;2.10;;
69621;SDS011;56841;55.964;37.674;2022-08-01T12:07:30;6.40;;;2.25;;
69621;SDS011;56841;55.964;37.674;2022-08-01T12:10:02;3.85;;;2.70;;
69621;SDS011;56841;55.964;37.674;2022-08-01T12:12:30;3.88;;;2.13;;
69621;SDS011;56841;55.964;37.674;2022-08-01T12:14:58;3.97;;;2.10;;
69621;SDS011;56841;55.964;37.674;2022-08-01T12:17:35;4.78;;;2.33;;
69621;SDS011;56841;55.964;37.674;2022-08-01T12:20:06;4.25;;;2.00;;
69621;SDS011;56841;55.964;37.674;2022-08-01T12:22:34;4.38;;;2.05;;
69621;SDS011;56841;55.964;37.674;2022-08-01T12:25:11;4.32;;;2.00;;
69621;SDS011;56841;55.964;37.674;2022-08-01T12:27:39;5.57;;;2.30;;
69621;SDS011;56841;55.964;37.674;2022-08-01T12:30:08;4.95;;;2.40;;
69621;SDS011;56841;55.964;37.674;2022-08-01T12:32:36;4.30;;;2.30;;
69621;SDS011;56841;55.964;37.674;2022-08-01T12:35:05;5.78;;;2.00;;
69621;SDS011;56841;55.964;37.674;2022-08-01T12:37:36;4.38;;;2.40;;
69621;SDS011;56841;55.964;37.674;2022-08-01T12:40:10;7.13;;;2.60;;
69621;SDS011;56841;55.964;37.674;2022-08-01T12:42:38;4.22;;;2.72;;
69621;SDS011;56841;55.964;37.674;2022-08-01T12:45:07;4.25;;;2.47;;
69621;SDS011;56841;55.964;37.674;2022-08-01T12:47:35;3.55;;;2.33;;
69621;SDS011;56841;55.964;37.674;2022-08-01T12:50:20;4.40;;;2.20;;
69621;SDS011;56841;55.964;37.674;2022-08-01T12:52:47;3.35;;;1.83;;
69621;SDS011;56841;55.964;37.674;2022-08-01T12:55:16;3.33;;;2.30;;
69621;SDS011;56841;55.964;37.674;2022-08-01T12:57:44;5.25;;;2.70;;
69621;SDS011;56841;55.964;37.674;2022-08-01T13:02:41;4.85;;;2.90;;
69621;SDS011;56841;55.964;37.674;2022-08-01T13:05:08;5.43;;;2.88;;
69621;SDS011;56841;55.964;37.674;2022-08-01T13:07:39;4.45;;;2.60;;
69621;SDS011;56841;55.964;37.674;2022-08-01T13:10:08;4.53;;;2.10;;
69621;SDS011;56841;55.964;37.674;2022-08-01T13:12:34;5.10;;;2.50;;
69621;SDS011;56841;55.964;37.674;2022-08-01T13:15:15;4.35;;;2.38;;
69621;SDS011;56841;55.964;37.674;2022-08-01T13:17:46;2.97;;;2.10;;
69621;SDS011;56841;55.964;37.674;2022-08-01T13:20:21;4.43;;;2.00;;
69621;SDS011;56841;55.964;37.674;2022-08-01T13:23:14;4.57;;;2.15;;
69621;SDS011;56841;55.964;37.674;2022-08-01T13:25:50;6.75;;;2.10;;
69621;SDS011;56841;55.964;37.674;2022-08-01T13:28:22;6.00;;;2.15;;
69621;SDS011;56841;55.964;37.674;2022-08-01T13:30:57;5.32;;;2.33;;
69621;SDS011;56841;55.964;37.674;2022-08-01T13:33:25;4.82;;;2.50;;
69621;SDS011;56841;55.964;37.674;2022-08-01T13:35:53;6.85;;;2.80;;
69621;SDS011;56841;55.964;37.674;2022-08-01T13:38:19;6.07;;;2.20;;
69621;SDS011;56841;55.964;37.674;2022-08-01T13:41:06;5.05;;;2.45;;
69621;SDS011;56841;55.964;37.674;2022-08-01T13:43:31;3.28;;;2.20;;
69621;SDS011;56841;55.964;37.674;2022-08-01T13:45:57;5.50;;;2.35;;
69621;SDS011;56841;55.964;37.674;2022-08-01T13:48:24;4.13;;;2.58;;
69621;SDS011;56841;55.964;37.674;2022-08-01T13:50:50;4.75;;;2.63;;
69621;SDS011;56841;55.964;37.674;2022-08-01T13:53:15;4.47;;;2.95;;
69621;SDS011;56841;55.964;37.674;2022-08-01T13:55:42;5.93;;;2.83;;
69621;SDS011;56841;55.964;37.674;2022-08-01T13:58:09;5.85;;;2.65;;
69621;SDS011;56841;55.964;37.674;2022-08-01T14:00:35;5.72;;;2.50;;
69621;SDS011;56841;55.964;37.674;2022-08-01T14:03:01;4.18;;;2.30;;
69621;SDS011;56841;55.964;37.674;2022-08-01T14:05:26;5.35;;;2.22;;
69621;SDS011;56841;55.964;37.674;2022-08-01T14:07:52;5.60;;;2.42;;
69621;SDS011;56841;55.964;37.674;2022-08-01T14:10:18;4.93;;;2.35;;
69621;SDS011;56841;55.964;37.674;2022-08-01T14:12:43;3.45;;;2.10;;
69621;SDS011;56841;55.964;37.674;2022-08-01T14:15:09;6.28;;;2.40;;
69621;SDS011;56841;55.964;37.674;2022-08-01T14:17:35;4.82;;;2.42;;
69621;SDS011;56841;55.964;37.674;2022-08-01T14:20:01;5.35;;;2.33;;
69621;SDS011;56841;55.964;37.674;2022-08-01T14:22:28;3.85;;;2.30;;
69621;SDS011;56841;55.964;37.674;2022-08-01T14:24:53;6.63;;;2.30;;
69621;SDS011;56841;55.964;37.674;2022-08-01T14:27:19;4.70;;;2.60;;
69621;SDS011;56841;55.964;37.674;2022-08-01T14:29:45;8.02;;;3.20;;
69621;SDS011;56841;55.964;37.674;2022-08-01T14:32:11;5.10;;;3.38;;
69621;SDS011;56841;55.964;37.674;2022-08-01T14:34:37;4.68;;;3.10;;
69621;SDS011;56841;55.964;37.674;2022-08-01T14:37:03;5.72;;;3.50;;
69621;SDS011;56841;55.964;37.674;2022-08-01T14:39:29;5.38;;;2.45;;
69621;SDS011;56841;55.964;37.674;2022-08-01T14:41:54;6.15;;;2.40;;
69621;SDS011;56841;55.964;37.674;2022-08-01T14:44:20;4.57;;;2.30;;
69621;SDS011;56841;55.964;37.674;2022-08-01T14:46:46;8.02;;;2.45;;
69621;SDS011;56841;55.964;37.674;2022-08-01T14:49:13;4.88;;;2.60;;
69621;SDS011;56841;55.964;37.674;2022-08-01T14:51:39;4.60;;;2.20;;
69621;SDS011;56841;55.964;37.674;2022-08-01T14:54:05;4.13;;;2.42;;
69621;SDS011;56841;55.964;37.674;2022-08-01T14:56:31;6.53;;;3.45;;
69621;SDS011;56841;55.964;37.674;2022-08-01T14:58:57;7.38;;;2.40;;
69621;SDS011;56841;55.964;37.674;2022-08-01T15:01:24;5.75;;;2.78;;
69621;SDS011;56841;55.964;37.674;2022-08-01T15:03:49;6.68;;;3.30;;
69621;SDS011;56841;55.964;37.674;2022-08-01T15:06:16;3.70;;;2.50;;
69621;SDS011;56841;55.964;37.674;2022-08-01T15:08:43;4.88;;;2.80;;
69621;SDS011;56841;55.964;37.674;2022-08-01T15:11:09;4.78;;;2.30;;
69621;SDS011;56841;55.964;37.674;2022-08-01T15:13:35;5.35;;;2.50;;
69621;SDS011;56841;55.964;37.674;2022-08-01T15:16:01;5.53;;;2.80;;
69621;SDS011;56841;55.964;37.674;2022-08-01T15:18:28;4.80;;;2.30;;
69621;SDS011;56841;55.964;37.674;2022-08-01T15:20:54;5.15;;;2.63;;
69621;SDS011;56841;55.964;37.674;2022-08-01T15:23:20;7.20;;;2.40;;
69621;SDS011;56841;55.964;37.674;2022-08-01T15:25:46;5.30;;;2.50;;
69621;SDS011;56841;55.964;37.674;2022-08-01T15:28:12;5.13;;;2.22;;